Terminal Aerodrome Forecast
Issued by NWS

Home | Current Version | Previous Version | Graphics & Text | Print | Product List | Glossary On
Versions: 1 2 3 4 5 6 7 8 9 10 11 12
820
FTUS43 KGRB 221720
TAFCWA
TAF
KCWA 221720Z 2218/2318 19007KT P6SM SKC
     FM230200 15003KT P6SM SKC WS007/20030KT
     FM231600 18013G21KT P6SM SCT250=

USA.gov is the U.S. government's official web portal to all federal, state and local government web resources and services.